Time;durP1;ratioP1;P1;durP2;ratioP2;P2;SDS_P1;SDS_P2;PMS_P1;PMS_P2;Temp;Humidity;BMP_temperature;BMP_pressure;BME280_temperature;BME280_humidity;BME280_pressure;Samples;Min_cycle;Max_cycle;Signal;HPM_P1;HPM_P2
2021/05/19 00:02:19;;;;;;;2.35;1.38;;;12.90;99.90;;;;;;5098882;27;20376;-81
2021/05/19 00:04:46;;;;;;;1.80;1.17;;;12.90;99.90;;;;;;5107592;28;20374;-81
2021/05/19 00:07:13;;;;;;;3.13;1.25;;;12.90;99.90;;;;;;5109357;28;20374;-82
2021/05/19 00:09:40;;;;;;;2.78;1.40;;;12.90;99.90;;;;;;5105593;28;20383;-81
2021/05/19 00:12:08;;;;;;;2.80;1.30;;;13.00;99.90;;;;;;5110871;27;20382;-82
2021/05/19 00:14:35;;;;;;;3.83;1.42;;;13.20;99.90;;;;;;5116863;27;20383;-80
2021/05/19 00:17:02;;;;;;;4.05;1.50;;;13.70;99.90;;;;;;5108659;28;20391;-81
2021/05/19 00:19:29;;;;;;;3.00;1.30;;;13.90;99.90;;;;;;5108832;28;20865;-81
2021/05/19 00:21:56;;;;;;;3.60;1.40;;;14.30;99.90;;;;;;5109043;28;20466;-80
2021/05/19 00:24:23;;;;;;;2.20;1.48;;;14.90;99.90;;;;;;5109063;28;20378;-81
2021/05/19 00:26:50;;;;;;;1.98;1.20;;;14.90;99.90;;;;;;5108628;28;20383;-81
2021/05/19 00:29:17;;;;;;;2.70;1.20;;;14.80;99.90;;;;;;5107808;28;20375;-79
2021/05/19 00:31:45;;;;;;;1.95;1.10;;;14.60;99.90;;;;;;5108460;28;20393;-80
2021/05/19 00:34:13;;;;;;;4.27;1.27;;;14.50;99.90;;;;;;5105480;28;20384;-81
2021/05/19 00:36:42;;;;;;;4.85;1.35;;;14.40;99.90;;;;;;5089797;28;20406;-80
2021/05/19 00:39:11;;;;;;;2.87;0.90;;;14.30;99.90;;;;;;5109152;28;20496;-79
2021/05/19 00:41:41;;;;;;;4.53;1.30;;;14.20;99.90;;;;;;5089714;28;20869;-81
2021/05/19 00:44:10;;;;;;;3.00;1.25;;;14.20;99.90;;;;;;5107536;28;20402;-80
2021/05/19 00:46:42;;;;;;;1.85;1.02;;;14.20;99.90;;;;;;5107932;28;20783;-79
2021/05/19 00:49:09;;;;;;;5.30;1.00;;;14.40;99.90;;;;;;5108566;28;20933;-80
2021/05/19 00:51:36;;;;;;;4.57;1.00;;;14.50;99.90;;;;;;5108163;28;20441;-80
2021/05/19 00:54:03;;;;;;;3.55;1.30;;;14.60;99.90;;;;;;5109046;28;20428;-80
2021/05/19 00:56:32;;;;;;;1.35;1.10;;;14.80;99.90;;;;;;5109148;28;20374;-80
2021/05/19 00:59:02;;;;;;;1.85;1.10;;;14.90;99.90;;;;;;5091093;28;20757;-80
2021/05/19 01:01:37;;;;;;;4.47;1.40;;;15.00;99.90;;;;;;5108165;28;20390;-80
2021/05/19 01:04:05;;;;;;;4.63;1.40;;;15.00;99.90;;;;;;5108561;28;20367;-80
2021/05/19 01:11:51;;;;;;;3.55;1.40;;;15.00;99.90;;;;;;5108335;28;20377;-80
2021/05/19 01:14:18;;;;;;;1.60;1.00;;;15.20;99.90;;;;;;5107543;28;20466;-80
2021/05/19 01:16:45;;;;;;;3.67;1.27;;;15.30;99.90;;;;;;5110111;28;20450;-81
2021/05/19 01:19:18;;;;;;;3.33;1.00;;;15.50;99.90;;;;;;5111755;28;20430;-80
2021/05/19 01:21:47;;;;;;;3.33;1.13;;;15.60;99.90;;;;;;5111545;28;20429;-79
2021/05/19 01:24:17;;;;;;;2.05;0.90;;;15.60;99.90;;;;;;5112520;28;20918;-81
2021/05/19 01:26:44;;;;;;;2.08;0.90;;;15.60;99.90;;;;;;5112425;28;20475;-82
2021/05/19 01:29:11;;;;;;;2.05;0.90;;;15.80;98.80;;;;;;5112389;28;20900;-81
2021/05/19 01:31:38;;;;;;;1.55;0.80;;;15.90;98.30;;;;;;5112364;28;20414;-82
2021/05/19 01:34:05;;;;;;;1.00;0.50;;;15.90;97.50;;;;;;5112138;28;20378;-82
2021/05/19 01:36:33;;;;;;;3.50;0.60;;;15.90;96.60;;;;;;5111972;27;20402;-82
2021/05/19 01:39:00;;;;;;;1.52;0.65;;;15.90;96.20;;;;;;5115962;27;20471;-82
2021/05/19 01:41:27;;;;;;;1.58;0.70;;;16.00;96.40;;;;;;5128109;27;20884;-81
2021/05/19 01:43:54;;;;;;;2.22;0.50;;;16.00;96.80;;;;;;5112287;28;20381;-82
2021/05/19 01:46:21;;;;;;;2.00;0.70;;;16.10;95.70;;;;;;5094308;28;20733;-83
2021/05/19 01:48:56;;;;;;;2.25;0.70;;;16.10;95.20;;;;;;5111634;28;20417;-84
2021/05/19 01:51:33;;;;;;;1.48;0.80;;;16.10;95.30;;;;;;5111259;28;20374;-83
2021/05/19 01:54:00;;;;;;;1.67;0.90;;;16.00;94.80;;;;;;5110365;28;20394;-82
2021/05/19 01:56:27;;;;;;;0.75;0.65;;;16.10;95.00;;;;;;5091175;28;20774;-82
2021/05/19 01:58:56;;;;;;;1.83;0.73;;;16.00;94.80;;;;;;5113549;27;20480;-84
2021/05/19 02:01:23;;;;;;;2.50;0.90;;;16.10;95.20;;;;;;5131958;27;20365;-82
2021/05/19 02:03:50;;;;;;;1.85;1.05;;;16.20;95.40;;;;;;5131769;27;20494;-82
2021/05/19 02:06:19;;;;;;;1.58;0.90;;;16.30;94.80;;;;;;5131765;27;20367;-83
2021/05/19 02:08:45;;;;;;;2.55;1.10;;;16.40;95.20;;;;;;5132653;27;20872;-84
2021/05/19 02:11:13;;;;;;;1.48;1.05;;;16.50;94.40;;;;;;5114073;27;20378;-83
2021/05/19 02:13:39;;;;;;;2.03;0.93;;;16.60;94.90;;;;;;5110801;28;20432;-83
2021/05/19 02:16:07;;;;;;;2.63;1.00;;;16.60;94.40;;;;;;5111647;28;20403;-84
2021/05/19 02:18:34;;;;;;;1.48;0.80;;;16.60;94.20;;;;;;5110933;28;20425;-83
2021/05/19 02:21:03;;;;;;;1.23;0.80;;;16.70;94.30;;;;;;5110830;28;20379;-82
2021/05/19 02:23:30;;;;;;;2.35;0.95;;;16.70;94.20;;;;;;5092592;28;20374;-82
2021/05/19 02:25:57;;;;;;;2.00;0.80;;;16.70;94.80;;;;;;5111985;28;20370;-83
2021/05/19 02:28:24;;;;;;;2.00;0.88;;;16.80;94.70;;;;;;5114294;28;20849;-83
2021/05/19 02:30:51;;;;;;;0.80;0.80;;;16.90;93.60;;;;;;5111505;28;20888;-85
2021/05/19 02:33:21;;;;;;;3.15;0.70;;;16.90;93.30;;;;;;5112002;28;20450;-85
2021/05/19 02:35:48;;;;;;;0.90;0.67;;;17.00;92.40;;;;;;5112004;28;20374;-86
2021/05/19 02:38:15;;;;;;;1.13;0.90;;;17.00;93.60;;;;;;5111525;28;20575;-83
2021/05/19 02:40:42;;;;;;;2.00;0.88;;;16.90;93.20;;;;;;5092214;28;20489;-83
2021/05/19 02:43:09;;;;;;;1.85;0.70;;;16.90;94.00;;;;;;5110114;28;20889;-83
2021/05/19 02:45:36;;;;;;;0.90;0.60;;;17.00;92.40;;;;;;5110607;28;20905;-83
2021/05/19 02:48:03;;;;;;;0.85;0.60;;;17.00;92.90;;;;;;5111421;28;20737;-82
2021/05/19 02:50:30;;;;;;;3.22;0.68;;;16.90;92.80;;;;;;5110876;28;20868;-85
2021/05/19 02:52:57;;;;;;;1.20;0.57;;;17.00;92.30;;;;;;5110992;28;20383;-84
2021/05/19 02:55:24;;;;;;;1.05;0.45;;;17.00;92.40;;;;;;5110549;28;20775;-84
2021/05/19 02:57:51;;;;;;;2.78;0.57;;;17.00;92.40;;;;;;5110266;28;20403;-83
2021/05/19 03:00:18;;;;;;;1.48;0.60;;;17.10;92.70;;;;;;5093341;27;20383;-83
2021/05/19 03:02:47;;;;;;;1.05;0.65;;;17.10;92.10;;;;;;5110238;28;20458;-84
2021/05/19 03:05:14;;;;;;;0.70;0.50;;;17.10;92.90;;;;;;5115899;27;20392;-84
2021/05/19 03:07:41;;;;;;;1.67;0.63;;;17.10;91.50;;;;;;5131798;27;20376;-84
2021/05/19 03:10:09;;;;;;;0.68;0.57;;;17.20;90.30;;;;;;5131284;27;20408;-83
2021/05/19 03:12:36;;;;;;;1.60;0.45;;;17.20;90.00;;;;;;5118197;27;20386;-84
2021/05/19 03:15:05;;;;;;;1.20;0.60;;;17.30;89.40;;;;;;5110689;28;20358;-85
2021/05/19 03:17:32;;;;;;;2.53;0.50;;;17.20;89.70;;;;;;5092302;28;20489;-82
2021/05/19 03:19:59;;;;;;;1.40;0.60;;;17.30;90.40;;;;;;5110493;28;20398;-83
2021/05/19 03:22:26;;;;;;;1.40;0.32;;;17.20;91.00;;;;;;5109898;28;20375;-83
2021/05/19 03:24:53;;;;;;;2.63;0.60;;;17.30;90.20;;;;;;5108061;27;20383;-83
2021/05/19 03:27:20;;;;;;;1.80;0.60;;;17.40;89.50;;;;;;5124781;27;20739;-83
2021/05/19 03:29:47;;;;;;;0.80;0.43;;;17.50;89.00;;;;;;5128580;27;20422;-83
2021/05/19 03:32:14;;;;;;;0.95;0.40;;;17.50;87.10;;;;;;5116272;27;21077;-84
2021/05/19 03:34:41;;;;;;;1.08;0.30;;;17.50;88.90;;;;;;5110977;27;20485;-85
2021/05/19 03:37:08;;;;;;;0.68;0.28;;;17.50;88.90;;;;;;5113354;27;20454;-83
2021/05/19 03:39:35;;;;;;;0.98;0.40;;;17.50;88.30;;;;;;5123863;27;20472;-83
2021/05/19 03:42:02;;;;;;;0.65;0.40;;;17.50;83.50;;;;;;5122847;27;20895;-85
2021/05/19 03:44:29;;;;;;;0.52;0.40;;;17.50;82.30;;;;;;5110016;28;20429;-83
2021/05/19 03:46:56;;;;;;;1.40;0.50;;;17.60;85.50;;;;;;5111307;28;20374;-83
2021/05/19 03:49:23;;;;;;;1.85;0.40;;;17.60;84.10;;;;;;5111656;28;20442;-84
2021/05/19 03:51:50;;;;;;;1.23;0.40;;;17.50;84.50;;;;;;5110001;28;20386;-84
2021/05/19 03:54:17;;;;;;;0.70;0.40;;;17.40;86.90;;;;;;5113154;27;20424;-82
2021/05/19 03:56:44;;;;;;;0.90;0.50;;;17.40;87.60;;;;;;5121897;27;20942;-84
2021/05/19 03:59:11;;;;;;;0.60;0.50;;;17.30;88.00;;;;;;5110456;27;20409;-83
2021/05/19 04:01:38;;;;;;;1.45;0.55;;;17.40;87.80;;;;;;5111983;28;20845;-83
2021/05/19 04:04:05;;;;;;;0.88;0.50;;;17.40;88.70;;;;;;5101361;28;20393;-85
2021/05/19 04:06:32;;;;;;;0.93;0.30;;;17.40;88.80;;;;;;5114673;28;20370;-84
2021/05/19 04:08:59;;;;;;;0.50;0.50;;;17.50;86.80;;;;;;5111921;28;20378;-83
2021/05/19 04:11:26;;;;;;;1.60;0.50;;;17.50;88.80;;;;;;5116724;28;20379;-84
2021/05/19 04:13:53;;;;;;;0.50;0.32;;;17.50;88.80;;;;;;5093194;28;20375;-84
2021/05/19 04:16:20;;;;;;;1.02;0.40;;;17.50;88.70;;;;;;5092982;28;20803;-85
2021/05/19 04:18:47;;;;;;;0.70;0.40;;;17.50;90.00;;;;;;5109485;28;20413;-84
2021/05/19 04:21:14;;;;;;;0.60;0.50;;;17.50;88.60;;;;;;5112319;28;20932;-85
2021/05/19 04:23:43;;;;;;;1.07;0.50;;;17.50;88.80;;;;;;5114993;28;20803;-84
2021/05/19 04:26:10;;;;;;;1.35;0.38;;;17.50;88.50;;;;;;5131526;27;20400;-83
2021/05/19 04:28:37;;;;;;;0.57;0.50;;;17.50;88.90;;;;;;5131966;27;20826;-84
2021/05/19 04:31:05;;;;;;;2.60;0.45;;;17.60;90.20;;;;;;5095089;28;20877;-84
2021/05/19 04:33:32;;;;;;;1.55;0.30;;;17.40;89.00;;;;;;5109041;28;20857;-84
2021/05/19 04:35:59;;;;;;;0.70;0.43;;;17.40;90.10;;;;;;5090320;28;20378;-84
2021/05/19 04:38:26;;;;;;;0.85;0.30;;;17.30;90.40;;;;;;5109737;28;20877;-84
2021/05/19 04:40:53;;;;;;;0.60;0.43;;;17.30;90.30;;;;;;5109183;28;20472;-84
2021/05/19 04:43:20;;;;;;;1.80;0.40;;;17.20;90.30;;;;;;5109264;28;20428;-83
2021/05/19 04:45:47;;;;;;;1.30;0.40;;;17.20;90.30;;;;;;5109045;28;20936;-84
2021/05/19 04:48:14;;;;;;;1.70;0.40;;;17.10;89.40;;;;;;5108619;28;20417;-84
2021/05/19 04:50:42;;;;;;;1.33;0.30;;;17.10;90.80;;;;;;5110601;28;20954;-83
2021/05/19 04:53:09;;;;;;;0.90;0.32;;;17.10;91.00;;;;;;5113282;28;20382;-84
2021/05/19 04:55:38;;;;;;;0.93;0.30;;;17.10;90.50;;;;;;5112886;28;20351;-82
2021/05/19 04:58:05;;;;;;;1.05;0.40;;;17.10;89.70;;;;;;5094580;28;20787;-83
2021/05/19 05:00:35;;;;;;;1.60;0.30;;;17.10;89.40;;;;;;5113205;28;20462;-84
2021/05/19 05:03:03;;;;;;;1.40;0.38;;;17.00;91.00;;;;;;5113006;28;20463;-83
2021/05/19 05:05:31;;;;;;;1.90;0.30;;;17.00;91.10;;;;;;5093884;28;20391;-84
2021/05/19 05:07:58;;;;;;;0.45;0.32;;;17.00;90.20;;;;;;5112986;28;20363;-83
2021/05/19 05:10:25;;;;;;;0.73;0.40;;;16.90;90.50;;;;;;5113120;28;20733;-83
2021/05/19 05:12:52;;;;;;;0.20;0.20;;;16.90;91.10;;;;;;5112857;28;20394;-81
2021/05/19 05:15:21;;;;;;;0.23;0.23;;;16.90;91.50;;;;;;5112690;28;20374;-83
2021/05/19 05:17:48;;;;;;;0.60;0.30;;;16.80;91.30;;;;;;5093771;28;20762;-82
2021/05/19 05:20:15;;;;;;;1.00;0.38;;;16.90;90.60;;;;;;5110731;28;20392;-83
2021/05/19 05:22:42;;;;;;;1.10;0.30;;;16.80;91.20;;;;;;5112001;28;20374;-83
2021/05/19 05:25:10;;;;;;;0.40;0.30;;;16.80;91.70;;;;;;5094539;28;20432;-84
2021/05/19 05:27:38;;;;;;;0.43;0.38;;;16.80;92.10;;;;;;5112714;28;20733;-82
2021/05/19 05:30:06;;;;;;;1.27;0.40;;;16.70;91.50;;;;;;5094364;28;20402;-83
2021/05/19 05:32:33;;;;;;;2.63;0.37;;;16.70;91.10;;;;;;5112336;28;20423;-83
2021/05/19 05:35:00;;;;;;;1.40;0.20;;;16.70;92.40;;;;;;5112232;28;20385;-82
2021/05/19 05:37:27;;;;;;;1.60;0.30;;;16.60;91.90;;;;;;5110615;28;20375;-82
2021/05/19 05:39:54;;;;;;;2.10;0.30;;;16.60;91.50;;;;;;5094139;28;20470;-82
2021/05/19 05:42:21;;;;;;;2.63;0.30;;;16.50;91.50;;;;;;5112512;28;20401;-81
2021/05/19 05:44:48;;;;;;;0.40;0.40;;;16.50;91.70;;;;;;5111647;28;20514;-82
2021/05/19 05:47:15;;;;;;;1.00;0.30;;;16.50;91.40;;;;;;5111719;28;20370;-82
2021/05/19 05:49:42;;;;;;;0.50;0.28;;;16.40;92.30;;;;;;5111523;28;20391;-81
2021/05/19 05:52:09;;;;;;;1.58;0.30;;;16.30;92.80;;;;;;5111636;28;20409;-81
2021/05/19 05:54:37;;;;;;;0.28;0.28;;;16.30;92.10;;;;;;5111714;28;20498;-81
2021/05/19 05:57:04;;;;;;;0.70;0.57;;;16.40;92.40;;;;;;5112250;28;20428;-82
2021/05/19 05:59:31;;;;;;;1.70;0.50;;;16.30;92.60;;;;;;5111686;28;20738;-83
2021/05/19 06:01:58;;;;;;;0.90;0.47;;;16.30;92.70;;;;;;5110779;28;20403;-81
2021/05/19 06:04:25;;;;;;;0.77;0.40;;;16.30;93.50;;;;;;5093449;28;20412;-82
2021/05/19 06:06:52;;;;;;;1.10;0.40;;;16.30;93.00;;;;;;5111940;28;20875;-80
2021/05/19 06:09:19;;;;;;;0.50;0.40;;;16.20;93.30;;;;;;5112042;28;20729;-81
2021/05/19 06:11:46;;;;;;;0.70;0.37;;;16.10;93.60;;;;;;5111790;28;20379;-82
2021/05/19 06:14:15;;;;;;;0.57;0.20;;;16.00;93.70;;;;;;5111418;28;20385;-81
2021/05/19 06:16:42;;;;;;;0.43;0.20;;;16.00;93.70;;;;;;5111408;28;20834;-82
2021/05/19 06:19:09;;;;;;;0.40;0.30;;;16.00;94.50;;;;;;5111648;28;20410;-82
2021/05/19 06:21:36;;;;;;;0.32;0.30;;;15.90;93.10;;;;;;5111489;28;20420;-82
2021/05/19 06:24:03;;;;;;;0.77;0.35;;;15.90;93.50;;;;;;5111698;28;20352;-82
2021/05/19 06:26:30;;;;;;;1.33;0.38;;;15.70;93.70;;;;;;5111395;28;20876;-81
2021/05/19 06:28:57;;;;;;;0.95;0.40;;;15.70;94.40;;;;;;5111415;28;20371;-82
2021/05/19 06:31:24;;;;;;;0.68;0.38;;;15.60;94.70;;;;;;5112982;27;20370;-81
2021/05/19 06:33:51;;;;;;;1.10;0.50;;;15.50;94.90;;;;;;5110972;28;20466;-81
2021/05/19 06:36:19;;;;;;;0.73;0.40;;;15.50;95.40;;;;;;5090860;28;20360;-82
2021/05/19 06:38:45;;;;;;;1.70;0.47;;;15.40;94.90;;;;;;5091222;28;20403;-81
2021/05/19 06:41:12;;;;;;;2.15;0.60;;;15.30;95.40;;;;;;5106039;28;20371;-82
2021/05/19 06:43:39;;;;;;;1.10;1.00;;;15.30;96.20;;;;;;5111074;28;20477;-82
2021/05/19 06:46:07;;;;;;;1.20;0.80;;;15.20;96.10;;;;;;5110341;28;20397;-81
2021/05/19 06:48:34;;;;;;;1.00;0.90;;;15.10;96.60;;;;;;5111064;28;20394;-81
2021/05/19 06:51:00;;;;;;;1.83;0.90;;;15.00;97.80;;;;;;5092907;28;20398;-82
2021/05/19 06:53:27;;;;;;;0.93;0.73;;;14.90;97.50;;;;;;5110837;28;20374;-81
2021/05/19 06:55:56;;;;;;;2.30;0.80;;;14.80;98.40;;;;;;5110516;28;20687;-81
2021/05/19 06:58:23;;;;;;;1.27;0.80;;;14.60;98.90;;;;;;5110932;28;20456;-81
2021/05/19 07:00:50;;;;;;;1.20;1.10;;;14.60;98.70;;;;;;5110892;28;20374;-81
2021/05/19 07:03:17;;;;;;;1.00;1.00;;;14.50;99.20;;;;;;5110674;28;20492;-82
2021/05/19 07:05:44;;;;;;;1.00;0.88;;;14.40;99.90;;;;;;5110464;28;20371;-82
2021/05/19 07:08:11;;;;;;;1.10;0.80;;;14.30;99.90;;;;;;5105399;28;20865;-82
2021/05/19 07:10:38;;;;;;;1.43;0.73;;;14.20;99.90;;;;;;5102844;27;20398;-82
2021/05/19 07:13:05;;;;;;;2.27;1.13;;;14.10;99.90;;;;;;5099199;27;20879;-82
2021/05/19 07:15:33;;;;;;;2.88;1.35;;;14.00;99.90;;;;;;5090043;28;20373;-82
2021/05/19 07:18:08;;;;;;;1.45;1.23;;;14.00;99.90;;;;;;5071382;28;20405;-82
2021/05/19 07:20:35;;;;;;;2.53;1.30;;;13.90;99.90;;;;;;5104158;27;20894;-83
2021/05/19 07:23:02;;;;;;;1.00;1.00;;;13.80;99.90;;;;;;5108613;28;20938;-82
2021/05/19 07:25:29;;;;;;;2.03;1.00;;;13.80;99.90;;;;;;5108747;28;20398;-83
2021/05/19 07:27:56;;;;;;;2.42;1.08;;;13.80;99.90;;;;;;5080599;28;20396;-83
2021/05/19 07:30:23;;;;;;;1.10;0.90;;;13.70;99.90;;;;;;5100948;28;20402;-82
2021/05/19 07:32:50;;;;;;;1.83;1.33;;;13.70;99.90;;;;;;5108766;28;20464;-82
2021/05/19 07:35:17;;;;;;;3.50;1.38;;;13.60;99.90;;;;;;5104925;28;20392;-83
2021/05/19 07:37:46;;;;;;;5.18;1.40;;;13.60;99.90;;;;;;5100217;28;20827;-81
2021/05/19 07:40:14;;;;;;;2.88;1.10;;;13.50;99.90;;;;;;5110275;28;20785;-80
2021/05/19 07:42:41;;;;;;;3.17;1.42;;;13.50;99.90;;;;;;5109512;28;20928;-80
2021/05/19 07:45:09;;;;;;;3.47;1.48;;;13.40;99.90;;;;;;5105668;28;20401;-80
2021/05/19 07:47:36;;;;;;;3.40;1.48;;;13.40;99.90;;;;;;5106484;28;20390;-82
2021/05/19 07:50:04;;;;;;;3.53;1.67;;;13.40;99.90;;;;;;5107476;28;20387;-80
2021/05/19 07:52:31;;;;;;;4.70;1.83;;;13.30;99.90;;;;;;5110921;28;20397;-82
2021/05/19 07:55:18;;;;;;;3.55;1.70;;;13.20;99.90;;;;;;5106893;28;20391;-81
2021/05/19 07:58:02;;;;;;;4.43;1.67;;;13.20;99.90;;;;;;5072319;28;20404;-80
2021/05/19 08:03:03;;;;;;;4.93;1.73;;;13.20;99.90;;;;;;5105334;28;20719;-82
2021/05/19 08:05:30;;;;;;;4.82;1.63;;;13.20;99.90;;;;;;5104449;28;20403;-81
2021/05/19 08:07:58;;;;;;;3.25;1.55;;;13.20;99.90;;;;;;5093133;28;20420;-82
2021/05/19 08:10:25;;;;;;;3.63;1.40;;;13.10;99.90;;;;;;5089620;28;20811;-82
2021/05/19 08:12:52;;;;;;;4.45;1.50;;;13.10;99.90;;;;;;5095097;28;20391;-82
2021/05/19 08:15:20;;;;;;;5.85;1.75;;;13.10;99.90;;;;;;5106128;28;20954;-82
2021/05/19 08:17:47;;;;;;;6.63;1.50;;;13.10;99.90;;;;;;5108763;28;20812;-82
2021/05/19 08:20:19;;;;;;;7.63;1.75;;;13.10;99.90;;;;;;5109121;28;20422;-83
2021/05/19 08:22:47;;;;;;;4.53;2.13;;;13.10;99.90;;;;;;5106183;28;20392;-84
2021/05/19 08:25:15;;;;;;;4.93;2.10;;;13.10;99.90;;;;;;5088752;28;20398;-84
2021/05/19 08:27:42;;;;;;;4.80;2.03;;;13.00;99.90;;;;;;5106744;28;20410;-83
2021/05/19 08:30:11;;;;;;;6.35;2.03;;;13.00;99.90;;;;;;5107981;28;20379;-84
2021/05/19 08:32:38;;;;;;;6.73;2.17;;;13.00;99.90;;;;;;5108054;28;20926;-82
2021/05/19 08:35:06;;;;;;;8.60;2.17;;;12.90;99.90;;;;;;5108876;28;20387;-84
2021/05/19 08:37:33;;;;;;;7.90;2.00;;;13.00;99.90;;;;;;5107942;28;20382;-83
2021/05/19 08:40:00;;;;;;;6.17;2.00;;;13.00;99.90;;;;;;5108919;28;20748;-83
2021/05/19 08:42:28;;;;;;;4.90;2.20;;;13.00;99.90;;;;;;5090370;28;20402;-84
2021/05/19 08:44:57;;;;;;;8.40;2.05;;;13.00;99.90;;;;;;5108404;28;20449;-83
2021/05/19 08:47:25;;;;;;;5.15;2.30;;;12.90;99.90;;;;;;5104831;28;20379;-83
2021/05/19 08:49:53;;;;;;;7.93;2.03;;;12.90;99.90;;;;;;5106954;28;20760;-83
2021/05/19 08:52:21;;;;;;;4.63;1.73;;;12.90;99.90;;;;;;5108522;28;20896;-83
2021/05/19 08:54:55;;;;;;;5.25;1.85;;;12.90;99.90;;;;;;5094636;28;20381;-83
2021/05/19 08:57:22;;;;;;;6.60;2.10;;;12.90;99.90;;;;;;5099732;28;20435;-83
2021/05/19 08:59:49;;;;;;;8.35;2.03;;;12.80;99.90;;;;;;5100076;28;20403;-82
2021/05/19 09:02:18;;;;;;;9.20;2.20;;;12.80;99.90;;;;;;5108839;28;20406;-83
2021/05/19 09:04:45;;;;;;;6.40;2.20;;;12.80;99.90;;;;;;5109090;28;20394;-83
2021/05/19 09:07:22;;;;;;;5.35;2.00;;;12.80;99.90;;;;;;5107555;28;20378;-83
2021/05/19 09:09:49;;;;;;;6.28;2.50;;;12.80;99.90;;;;;;5087996;28;20471;-84
2021/05/19 09:12:16;;;;;;;13.07;2.95;;;12.80;99.90;;;;;;5090390;28;20736;-84
2021/05/19 09:14:56;;;;;;;9.45;3.10;;;12.80;99.90;;;;;;5109125;28;20404;-84
2021/05/19 09:17:28;;;;;;;10.57;2.90;;;12.80;99.90;;;;;;5108126;28;20386;-83
2021/05/19 09:20:11;;;;;;;11.30;3.72;;;12.80;99.90;;;;;;5106436;28;20900;-83
2021/05/19 09:22:47;;;;;;;9.18;3.20;;;12.70;99.90;;;;;;5090386;28;20491;-83
2021/05/19 09:25:34;;;;;;;9.48;3.20;;;12.70;99.90;;;;;;5108677;28;20805;-84
2021/05/19 09:28:07;;;;;;;9.02;3.35;;;12.70;99.90;;;;;;5108701;28;20386;-85
2021/05/19 09:30:45;;;;;;;6.25;2.90;;;12.60;99.90;;;;;;5108694;28;20379;-84
2021/05/19 09:33:16;;;;;;;11.00;3.95;;;12.40;99.90;;;;;;5107576;28;20383;-84
2021/05/19 09:36:07;;;;;;;6.82;3.40;;;12.30;99.90;;;;;;5090091;28;20768;-84
2021/05/19 09:38:34;;;;;;;9.23;3.95;;;12.20;99.90;;;;;;5111785;28;20394;-84
2021/05/19 09:41:28;;;;;;;6.93;3.95;;;12.10;99.90;;;;;;5112042;28;20457;-84
2021/05/19 09:43:57;;;;;;;9.75;3.53;;;12.10;99.90;;;;;;5113628;28;20363;-86
2021/05/19 09:49:31;;;;;;;8.82;3.00;;;12.00;99.90;;;;;;5111504;28;20406;-84
2021/05/19 09:52:10;;;;;;;11.70;3.20;;;12.00;99.90;;;;;;5064227;28;21206;-84
2021/05/19 09:54:41;;;;;;;11.85;3.63;;;12.00;99.90;;;;;;5109016;28;20382;-84
2021/05/19 09:57:11;;;;;;;8.70;3.10;;;12.10;99.90;;;;;;5109452;28;20390;-84
2021/05/19 09:59:42;;;;;;;10.00;3.58;;;12.10;99.90;;;;;;5109354;28;20406;-84
2021/05/19 10:02:11;;;;;;;13.00;3.70;;;12.10;99.90;;;;;;5109784;28;20373;-84
2021/05/19 10:04:40;;;;;;;7.97;4.28;;;12.00;99.90;;;;;;5109431;28;20410;-83
2021/05/19 10:07:13;;;;;;;8.98;3.70;;;12.00;99.90;;;;;;5109256;28;20383;-84
2021/05/19 10:09:40;;;;;;;11.13;3.92;;;12.00;99.90;;;;;;5090633;28;20757;-83
2021/05/19 10:12:08;;;;;;;9.25;3.30;;;11.90;99.90;;;;;;5109248;28;20509;-84
2021/05/19 10:14:36;;;;;;;8.05;3.70;;;11.90;99.90;;;;;;5108543;28;20382;-84
2021/05/19 10:17:11;;;;;;;9.03;3.40;;;11.90;99.90;;;;;;5108578;28;20540;-83
2021/05/19 10:19:51;;;;;;;7.18;3.10;;;11.90;99.90;;;;;;5091445;28;21030;-83
2021/05/19 10:22:20;;;;;;;6.63;2.95;;;12.00;99.90;;;;;;5108618;28;20417;-83
2021/05/19 10:24:58;;;;;;;10.55;3.10;;;12.00;99.90;;;;;;5108859;28;20415;-85
2021/05/19 10:27:25;;;;;;;12.43;3.35;;;11.90;99.90;;;;;;5108475;28;20467;-83
2021/05/19 10:29:55;;;;;;;9.07;3.17;;;11.90;99.90;;;;;;5090065;28;20383;-84
2021/05/19 10:32:22;;;;;;;14.73;9.43;;;11.90;99.90;;;;;;5108728;28;20367;-83
2021/05/19 10:34:50;;;;;;;20.95;14.75;;;11.80;99.90;;;;;;5108623;28;20413;-85
2021/05/19 10:37:29;;;;;;;16.80;12.40;;;11.80;99.90;;;;;;5108737;28;21289;-86
2021/05/19 10:40:15;;;;;;;12.93;9.30;;;11.70;99.90;;;;;;5108410;28;20897;-84
2021/05/19 10:42:53;;;;;;;14.43;8.60;;;11.70;99.90;;;;;;5107902;28;20453;-84
2021/05/19 10:45:21;;;;;;;14.20;5.95;;;11.80;99.90;;;;;;5107163;28;20410;-83
2021/05/19 10:47:49;;;;;;;11.02;5.28;;;11.80;99.90;;;;;;5107709;28;20425;-85
2021/05/19 10:50:28;;;;;;;7.57;2.92;;;11.80;99.90;;;;;;5088030;28;20376;-85
2021/05/19 10:58:50;;;;;;;8.25;3.10;;;11.80;99.90;;;;;;5108297;28;20449;-83
2021/05/19 11:01:36;;;;;;;9.23;2.85;;;11.80;99.90;;;;;;5107579;28;20374;-84
2021/05/19 11:04:22;;;;;;;9.48;2.97;;;11.90;99.90;;;;;;5107522;28;20389;-84
2021/05/19 11:07:03;;;;;;;7.10;2.72;;;11.90;99.90;;;;;;5106515;28;20393;-84
2021/05/19 11:09:32;;;;;;;10.43;2.85;;;11.90;99.90;;;;;;5104027;28;20389;-84
2021/05/19 11:12:35;;;;;;;8.82;3.28;;;11.90;99.90;;;;;;5110507;28;20386;-86
2021/05/19 11:21:05;;;;;;;16.50;8.00;;;11.60;99.90;;;;;;5110606;28;20374;-84
2021/05/19 11:23:33;;;;;;;16.67;11.50;;;11.60;99.90;;;;;;5110498;28;20371;-84
2021/05/19 11:26:13;;;;;;;14.95;8.20;;;11.50;99.90;;;;;;5110133;28;20376;-84
2021/05/19 11:28:43;;;;;;;16.08;8.43;;;11.50;99.90;;;;;;5108937;28;20405;-83
2021/05/19 11:31:12;;;;;;;18.83;13.45;;;11.40;99.90;;;;;;5110435;28;20427;-85
2021/05/19 11:33:54;;;;;;;22.52;15.32;;;11.40;99.90;;;;;;5109409;28;20463;-84
2021/05/19 11:36:31;;;;;;;19.40;14.30;;;11.30;99.90;;;;;;5110227;28;20367;-85
2021/05/19 11:39:05;;;;;;;16.55;11.77;;;11.30;99.90;;;;;;5110316;28;20492;-84
2021/05/19 11:41:32;;;;;;;16.92;10.50;;;11.20;99.90;;;;;;5110600;28;20401;-84
2021/05/19 11:43:59;;;;;;;14.63;6.53;;;11.30;99.90;;;;;;5110634;28;20861;-84
2021/05/19 11:46:26;;;;;;;11.02;5.43;;;11.30;99.90;;;;;;5109463;28;20386;-84
2021/05/19 11:49:10;;;;;;;8.75;5.05;;;11.30;99.90;;;;;;5110193;28;20466;-83
2021/05/19 11:51:43;;;;;;;13.30;3.63;;;11.30;99.90;;;;;;5110139;28;20370;-84
2021/05/19 11:54:10;;;;;;;9.55;3.00;;;11.40;99.90;;;;;;5109772;28;20441;-83
2021/05/19 11:56:46;;;;;;;6.80;2.90;;;11.40;99.90;;;;;;5094915;28;20393;-85
2021/05/19 11:59:21;;;;;;;7.68;2.97;;;11.40;99.90;;;;;;5109625;28;20485;-84
2021/05/19 12:02:14;;;;;;;13.27;3.67;;;11.40;99.90;;;;;;5115568;28;20426;-85
2021/05/19 12:04:42;;;;;;;7.65;2.90;;;11.40;99.90;;;;;;5086930;28;20396;-86
2021/05/19 12:07:10;;;;;;;8.43;2.80;;;11.40;99.90;;;;;;5105599;28;20370;-85
2021/05/19 12:09:42;;;;;;;6.57;2.97;;;11.40;99.90;;;;;;5113806;28;20386;-85
2021/05/19 12:12:12;;;;;;;5.97;2.85;;;11.30;99.90;;;;;;5113392;28;20496;-86
2021/05/19 12:14:50;;;;;;;6.07;2.63;;;11.30;99.90;;;;;;5112427;28;20473;-85
2021/05/19 12:17:17;;;;;;;7.57;2.90;;;11.40;99.90;;;;;;5113173;28;20465;-85
2021/05/19 12:19:48;;;;;;;8.45;2.92;;;11.40;99.90;;;;;;5111620;28;20513;-85
2021/05/19 12:22:18;;;;;;;8.82;3.10;;;11.40;99.90;;;;;;5099508;28;20390;-84
2021/05/19 12:24:46;;;;;;;9.18;3.30;;;11.40;99.90;;;;;;5115829;28;20390;-84
2021/05/19 12:27:22;;;;;;;7.28;3.17;;;11.40;99.90;;;;;;5111607;28;20381;-84
2021/05/19 12:29:58;;;;;;;6.80;3.55;;;11.40;99.90;;;;;;5111820;28;20753;-85
2021/05/19 12:32:29;;;;;;;7.03;3.63;;;11.30;99.90;;;;;;5104670;28;20382;-84
2021/05/19 12:35:16;;;;;;;9.95;3.40;;;11.30;99.90;;;;;;5108796;28;20504;-84
2021/05/19 12:38:07;;;;;;;6.03;3.35;;;11.20;99.90;;;;;;5115125;28;20894;-83
2021/05/19 12:40:36;;;;;;;7.15;3.03;;;11.10;99.90;;;;;;5105848;28;20814;-84
2021/05/19 12:43:04;;;;;;;7.90;3.70;;;11.10;99.90;;;;;;5114320;28;20397;-86
2021/05/19 12:45:43;;;;;;;3.40;2.63;;;11.10;99.90;;;;;;5111276;28;20564;-85
2021/05/19 12:48:18;;;;;;;6.07;2.85;;;11.10;99.90;;;;;;5116444;28;20392;-85
2021/05/19 12:50:59;;;;;;;8.63;2.88;;;11.10;99.90;;;;;;5114608;28;20416;-85
2021/05/19 12:53:42;;;;;;;5.82;2.50;;;11.00;99.90;;;;;;5111243;28;20398;-84
2021/05/19 12:56:11;;;;;;;9.60;2.77;;;10.90;99.90;;;;;;5108019;28;20398;-84
2021/05/19 12:59:09;;;;;;;8.02;2.85;;;10.90;99.90;;;;;;5116915;28;20409;-85
2021/05/19 13:01:47;;;;;;;5.05;3.05;;;10.80;99.90;;;;;;5107078;28;20402;-84
2021/05/19 13:04:15;;;;;;;8.13;3.05;;;10.70;99.90;;;;;;5105749;28;20383;-85
2021/05/19 13:06:43;;;;;;;7.00;3.13;;;10.70;99.90;;;;;;5110026;28;20382;-85
2021/05/19 13:09:19;;;;;;;6.97;3.28;;;10.70;99.90;;;;;;5112237;28;20394;-85
2021/05/19 13:12:01;;;;;;;7.63;3.73;;;10.60;99.90;;;;;;5110384;28;20397;-85
2021/05/19 13:14:39;;;;;;;5.80;3.05;;;10.60;99.90;;;;;;5101895;28;20484;-84
2021/05/19 13:17:24;;;;;;;8.48;3.30;;;10.60;99.90;;;;;;5114706;28;20482;-84
2021/05/19 13:20:05;;;;;;;4.70;2.95;;;10.50;99.90;;;;;;5117346;28;20409;-85
2021/05/19 13:22:32;;;;;;;6.68;3.53;;;10.50;99.90;;;;;;5110823;28;20389;-85